createdAt,value
2023-04-10T00:00:39.320Z,73.93
2023-04-10T00:03:06.958Z,73.48
2023-04-10T00:05:34.290Z,72.40
2023-04-10T00:08:02.886Z,73.15
2023-04-10T00:10:31.695Z,74.80
2023-04-10T00:13:00.890Z,75.59
2023-04-10T00:15:28.755Z,75.77
2023-04-10T00:17:55.981Z,77.33
2023-04-10T00:20:26.174Z,77.65
2023-04-10T00:22:53.312Z,78.06
2023-04-10T00:25:20.682Z,77.94
2023-04-10T00:27:47.783Z,78.78
2023-04-10T00:30:14.875Z,78.18
2023-04-10T00:32:43.709Z,77.46
2023-04-10T00:35:10.848Z,77.47
2023-04-10T00:37:38.401Z,78.18
2023-04-10T00:40:06.698Z,77.52
2023-04-10T00:42:33.908Z,76.80
2023-04-10T00:45:01.204Z,76.61
2023-04-10T00:47:29.005Z,77.37
2023-04-10T00:49:56.342Z,77.71
2023-04-10T00:52:26.101Z,77.75
2023-04-10T00:54:53.199Z,78.69
2023-04-10T00:57:20.341Z,78.40
2023-04-10T00:59:48.857Z,79.15
2023-04-10T01:02:18.148Z,79.03
2023-04-10T01:04:45.802Z,77.73
2023-04-10T01:07:47.302Z,78.01
2023-04-10T01:10:53.880Z,76.53
2023-04-10T01:13:43.630Z,77.16
2023-04-10T01:16:52.234Z,76.90
2023-04-10T01:19:49.228Z,76.78
2023-04-10T01:22:17.489Z,76.09
2023-04-10T01:25:38.453Z,72.74
2023-04-10T01:28:12.017Z,71.58
2023-04-10T01:30:40.511Z,69.48
2023-04-10T01:33:13.623Z,68.83
2023-04-10T01:35:46.039Z,72.80
2023-04-10T01:38:15.860Z,74.76
2023-04-10T01:40:50.264Z,74.54
2023-04-10T01:43:19.462Z,75.06
2023-04-10T01:45:49.388Z,73.09
2023-04-10T01:48:18.686Z,72.09
2023-04-10T01:50:47.777Z,71.93
2023-04-10T01:53:15.917Z,75.19
2023-04-10T01:55:43.684Z,76.58
2023-04-10T01:58:11.971Z,76.62
2023-04-10T02:00:41.836Z,76.25
2023-04-10T02:03:10.820Z,74.48
2023-04-10T02:06:35.404Z,71.07
2023-04-10T02:09:38.111Z,72.57
2023-04-10T02:12:15.616Z,73.16
2023-04-10T02:14:47.998Z,70.18
2023-04-10T02:17:23.592Z,71.87
2023-04-10T02:19:53.318Z,71.89
2023-04-10T02:22:21.999Z,70.09
2023-04-10T02:24:50.108Z,70.31
2023-04-10T02:27:27.689Z,67.54
2023-04-10T02:29:54.793Z,70.61
2023-04-10T02:32:21.857Z,72.87
2023-04-10T02:34:48.968Z,72.53
2023-04-10T02:37:16.624Z,71.11
2023-04-10T02:39:43.704Z,70.25
2023-04-10T02:42:11.104Z,69.57
2023-04-10T02:44:39.590Z,68.73
2023-04-10T02:47:07.156Z,73.64
2023-04-10T02:49:35.109Z,74.83
2023-04-10T02:52:02.573Z,75.51
2023-04-10T02:54:29.671Z,76.49
2023-04-10T02:57:00.416Z,76.91
2023-04-10T02:59:27.760Z,75.56
2023-04-10T03:01:54.952Z,76.39
2023-04-10T03:04:22.133Z,75.84
2023-04-10T03:06:49.356Z,76.67
2023-04-10T03:09:16.986Z,75.86
2023-04-10T03:11:44.069Z,75.39
2023-04-10T03:14:11.146Z,75.75
2023-04-10T03:16:38.366Z,76.98
2023-04-10T03:19:05.725Z,77.10
2023-04-10T03:21:32.879Z,77.36
2023-04-10T03:23:59.998Z,76.21
2023-04-10T03:26:28.346Z,76.35
2023-04-10T03:28:55.491Z,75.25
2023-04-10T03:31:22.684Z,73.69
2023-04-10T03:33:49.985Z,71.89
2023-04-10T03:36:17.254Z,72.33
2023-04-10T03:38:46.402Z,72.01
2023-04-10T03:41:13.581Z,71.44
2023-04-10T03:43:40.728Z,71.86
2023-04-10T03:46:07.801Z,72.58
2023-04-10T03:48:34.873Z,72.47
2023-04-10T03:51:04.298Z,74.74
2023-04-10T03:53:35.902Z,76.79
2023-04-10T03:56:04.145Z,76.99
2023-04-10T03:58:31.329Z,76.45
2023-04-10T04:00:58.511Z,75.60
2023-04-10T04:03:25.749Z,76.98
2023-04-10T04:05:52.891Z,75.97
2023-04-10T04:08:20.011Z,75.09
2023-04-10T04:10:47.149Z,74.77
2023-04-10T04:13:14.192Z,76.03
2023-04-10T04:15:42.302Z,76.75
2023-04-10T04:18:10.626Z,76.64
2023-04-10T04:20:37.686Z,76.50
2023-04-10T04:23:04.750Z,77.50
2023-04-10T04:25:31.832Z,76.52
2023-04-10T04:27:58.927Z,77.37
2023-04-10T04:30:26.001Z,78.75
2023-04-10T04:32:53.076Z,79.43
2023-04-10T04:35:20.244Z,80.41
2023-04-10T04:37:49.460Z,80.01
2023-04-10T04:40:16.629Z,79.17
2023-04-10T04:42:43.695Z,79.02
2023-04-10T04:45:11.279Z,79.08
2023-04-10T04:47:38.402Z,76.78
2023-04-10T04:50:06.672Z,76.99
2023-04-10T04:52:35.276Z,78.26
2023-04-10T04:55:02.432Z,79.22
2023-04-10T04:57:29.437Z,79.27
2023-04-10T04:59:56.643Z,79.13
2023-04-10T05:02:23.876Z,77.96
2023-04-10T05:04:51.368Z,75.82
2023-04-10T05:07:18.421Z,76.35
2023-04-10T05:09:45.507Z,77.40
2023-04-10T05:12:12.624Z,77.08
2023-04-10T05:14:39.709Z,77.59
2023-04-10T05:17:07.795Z,77.99
2023-04-10T05:19:34.851Z,78.67
2023-04-10T05:22:01.911Z,77.37
2023-04-10T05:24:28.956Z,77.06
2023-04-10T05:26:56.039Z,77.08
2023-04-10T05:29:24.748Z,75.98
2023-04-10T05:31:53.388Z,76.05
2023-04-10T05:34:20.819Z,75.06
2023-04-10T05:36:47.880Z,76.28
2023-04-10T05:39:15.778Z,76.56
2023-04-10T05:41:42.937Z,73.66
2023-04-10T05:44:10.079Z,74.93
2023-04-10T05:46:37.246Z,74.12
2023-04-10T05:49:04.351Z,73.56
2023-04-10T05:51:31.950Z,72.03
2023-04-10T05:53:59.029Z,72.48
2023-04-10T05:56:28.136Z,73.90
2023-04-10T05:58:55.474Z,73.51
2023-04-10T06:01:22.904Z,71.83
2023-04-10T06:03:50.144Z,71.35
2023-04-10T06:06:21.784Z,73.98
2023-04-10T06:08:50.296Z,73.44
2023-04-10T06:11:17.399Z,75.34
2023-04-10T06:13:44.487Z,75.34
2023-04-10T06:16:11.884Z,76.17
2023-04-10T06:18:41.888Z,76.81
2023-04-10T06:21:09.104Z,75.80
2023-04-10T06:23:37.223Z,73.29
2023-04-10T06:26:04.708Z,74.18
2023-04-10T06:28:31.769Z,74.13
2023-04-10T06:30:58.939Z,73.19
2023-04-10T06:33:26.380Z,71.88
2023-04-10T06:35:53.530Z,70.00
2023-04-10T06:38:22.963Z,68.84
2023-04-10T06:40:51.649Z,69.13
2023-04-10T06:43:18.692Z,69.09
2023-04-10T06:45:46.350Z,67.59
2023-04-10T06:48:13.640Z,72.27
2023-04-10T06:50:40.791Z,65.01
2023-04-10T06:53:08.011Z,69.16
2023-04-10T06:55:35.272Z,68.12
2023-04-10T06:58:02.361Z,70.73
2023-04-10T07:00:31.173Z,69.81
2023-04-10T07:02:58.418Z,67.18
2023-04-10T07:05:25.524Z,69.02
2023-04-10T07:07:53.264Z,69.53
2023-04-10T07:10:20.798Z,66.68
2023-04-10T07:12:47.948Z,69.39
2023-04-10T07:15:15.059Z,66.83
2023-04-10T07:17:42.456Z,66.89
2023-04-10T07:20:10.648Z,68.85
2023-04-10T07:22:38.949Z,68.55
2023-04-10T07:25:07.293Z,66.31
2023-04-10T07:27:34.554Z,68.10
2023-04-10T07:30:01.733Z,66.24
2023-04-10T07:32:28.972Z,63.43
2023-04-10T07:34:56.189Z,61.14
2023-04-10T07:37:23.293Z,60.43
2023-04-10T07:39:50.385Z,65.37
2023-04-10T07:42:17.451Z,64.40
2023-04-10T07:44:44.596Z,61.12
2023-04-10T07:47:11.831Z,60.44
2023-04-10T07:49:38.975Z,59.80
2023-04-10T07:52:06.234Z,58.30
2023-04-10T07:54:36.566Z,57.65
2023-04-10T07:57:03.652Z,57.79
2023-04-10T07:59:30.839Z,64.45
2023-04-10T08:01:58.089Z,63.44
2023-04-10T08:04:25.542Z,58.76
2023-04-10T08:06:52.922Z,59.12
2023-04-10T08:09:20.542Z,59.20
2023-04-10T08:11:47.936Z,58.41
2023-04-10T08:14:17.965Z,59.57
2023-04-10T08:16:45.935Z,61.34
2023-04-10T08:19:13.249Z,57.63
2023-04-10T08:21:40.414Z,56.07
2023-04-10T08:24:07.649Z,56.67
2023-04-10T08:26:37.669Z,56.02
2023-04-10T08:29:04.764Z,58.69
2023-04-10T08:31:32.079Z,59.18
2023-04-10T08:33:59.754Z,60.34
2023-04-10T08:36:27.685Z,55.63
2023-04-10T08:38:54.808Z,56.82
2023-04-10T08:41:22.088Z,54.07
2023-04-10T08:43:51.300Z,54.23
2023-04-10T08:46:18.537Z,56.24
2023-04-10T08:49:05.487Z,53.59
2023-04-10T08:51:43.941Z,51.84
2023-04-10T08:54:28.465Z,54.13
2023-04-10T08:56:58.441Z,51.60
2023-04-10T08:59:27.636Z,56.17
2023-04-10T09:01:54.829Z,51.37
2023-04-10T09:04:23.384Z,48.64
2023-04-10T09:06:50.758Z,50.54
2023-04-10T09:09:17.928Z,48.43
2023-04-10T09:12:00.236Z,47.27
2023-04-10T09:14:32.612Z,52.42
2023-04-10T09:17:21.597Z,54.88
2023-04-10T09:19:49.416Z,51.69
2023-04-10T09:22:17.316Z,49.39
2023-04-10T09:24:47.759Z,48.64
2023-04-10T09:27:37.210Z,49.78
2023-04-10T09:30:07.156Z,48.68
2023-04-10T09:33:02.176Z,48.87
2023-04-10T09:35:39.612Z,48.82
2023-04-10T09:38:21.784Z,46.68
2023-04-10T09:40:49.655Z,46.17
2023-04-10T09:43:27.311Z,52.35
2023-04-10T09:45:57.466Z,53.11
2023-04-10T09:48:29.098Z,48.82
2023-04-10T09:50:57.669Z,49.49
2023-04-10T09:53:25.319Z,47.10
2023-04-10T09:55:52.506Z,50.58
2023-04-10T09:58:19.602Z,49.57
2023-04-10T10:00:50.015Z,47.63
2023-04-10T10:03:23.016Z,47.00
2023-04-10T10:05:54.553Z,50.79
2023-04-10T10:08:22.838Z,49.77
2023-04-10T10:10:57.417Z,49.34
2023-04-10T10:13:46.813Z,47.09
2023-04-10T10:16:47.002Z,48.56
2023-04-10T10:19:29.209Z,46.94
2023-04-10T10:21:57.422Z,50.08
2023-04-10T10:24:26.451Z,49.86
2023-04-10T10:26:57.261Z,51.66
2023-04-10T10:29:30.212Z,46.86
2023-04-10T10:31:59.914Z,52.07
2023-04-10T10:34:27.198Z,46.38
2023-04-10T10:36:54.650Z,50.66
2023-04-10T10:40:14.281Z,50.51
2023-04-10T10:43:05.836Z,46.65
2023-04-10T10:45:57.340Z,50.04
2023-04-10T10:48:24.702Z,50.82
2023-04-10T10:51:01.974Z,47.39
2023-04-10T10:53:45.884Z,49.16
2023-04-10T10:56:18.889Z,47.74
2023-04-10T10:58:56.071Z,48.56
2023-04-10T11:01:24.331Z,50.07
2023-04-10T11:03:51.703Z,46.04
2023-04-10T11:06:48.626Z,48.53
2023-04-10T11:09:57.166Z,42.00
2023-04-10T11:12:25.460Z,43.41
2023-04-10T11:15:04.939Z,40.66
2023-04-10T11:17:54.233Z,38.73
2023-04-10T11:20:25.741Z,41.76
2023-04-10T11:23:13.076Z,41.96
2023-04-10T11:25:52.903Z,42.60
2023-04-10T11:28:32.213Z,42.25
2023-04-10T11:31:22.028Z,40.77
2023-04-10T11:34:02.585Z,39.19
2023-04-10T11:36:31.939Z,41.27
2023-04-10T11:39:09.078Z,42.07
2023-04-10T11:41:42.702Z,43.43
2023-04-10T11:44:14.543Z,43.71
2023-04-10T11:46:47.907Z,39.33
2023-04-10T11:49:29.826Z,38.88
2023-04-10T11:51:59.275Z,39.87
2023-04-10T11:54:29.602Z,44.69
2023-04-10T11:57:09.780Z,42.13
2023-04-10T11:59:37.102Z,41.03
2023-04-10T12:02:17.417Z,38.87
2023-04-10T12:04:44.950Z,38.33
2023-04-10T12:07:12.286Z,42.92
2023-04-10T12:09:39.665Z,41.07
2023-04-10T12:12:08.303Z,40.11
2023-04-10T12:14:42.401Z,40.65
2023-04-10T12:17:12.860Z,37.60
2023-04-10T12:19:41.756Z,37.52
2023-04-10T12:22:12.855Z,38.27
2023-04-10T12:24:50.668Z,46.84
2023-04-10T12:27:27.494Z,42.35
2023-04-10T12:29:59.004Z,40.42
2023-04-10T12:32:27.827Z,36.35
2023-04-10T12:35:01.297Z,34.49
2023-04-10T12:37:54.352Z,36.21
2023-04-10T12:40:21.585Z,33.51
2023-04-10T12:42:48.832Z,36.13
2023-04-10T12:45:15.893Z,35.68
2023-04-10T12:47:54.271Z,38.02
2023-04-10T12:50:21.816Z,37.95
2023-04-10T12:53:11.814Z,38.13
2023-04-10T12:55:40.829Z,38.90
2023-04-10T12:58:20.558Z,40.41
2023-04-10T13:00:49.077Z,38.13
2023-04-10T13:03:16.355Z,39.93
2023-04-10T13:05:44.688Z,39.69
2023-04-10T13:08:12.011Z,39.60
2023-04-10T13:10:40.484Z,39.89
2023-04-10T13:13:13.878Z,43.08
2023-04-10T13:15:41.605Z,40.40
2023-04-10T13:18:10.408Z,37.66
2023-04-10T13:20:41.193Z,40.00
2023-04-10T13:23:08.778Z,42.05
2023-04-10T13:25:40.598Z,34.73
2023-04-10T13:28:11.119Z,40.26
2023-04-10T13:30:42.321Z,40.82
2023-04-10T13:33:10.238Z,42.27
2023-04-10T13:35:37.510Z,37.19
2023-04-10T13:38:09.131Z,35.57
2023-04-10T13:40:36.185Z,37.96
2023-04-10T13:43:05.782Z,40.39
2023-04-10T13:45:33.691Z,37.61
2023-04-10T13:48:00.973Z,37.53
2023-04-10T13:50:28.159Z,34.57
2023-04-10T13:52:55.264Z,33.58
2023-04-10T13:55:22.523Z,37.44
2023-04-10T13:57:49.545Z,38.56
2023-04-10T14:00:17.425Z,35.21
2023-04-10T14:02:45.771Z,39.16
2023-04-10T14:05:12.923Z,37.79
2023-04-10T14:07:39.985Z,41.78
2023-04-10T14:10:08.381Z,40.12
2023-04-10T14:12:37.072Z,41.37
2023-04-10T14:15:05.954Z,37.07
2023-04-10T14:17:34.813Z,38.35
2023-04-10T14:20:01.973Z,39.85
2023-04-10T14:22:30.331Z,39.46
2023-04-10T14:25:09.423Z,39.08
2023-04-10T14:27:40.690Z,38.84
2023-04-10T14:30:10.069Z,40.32
2023-04-10T14:32:39.284Z,46.20
2023-04-10T14:35:07.359Z,40.98
2023-04-10T14:37:34.474Z,42.07
2023-04-10T14:40:01.677Z,43.55
2023-04-10T14:42:28.940Z,41.91
2023-04-10T14:45:01.059Z,40.18
2023-04-10T14:47:31.633Z,40.76
2023-04-10T14:49:58.850Z,40.38
2023-04-10T14:52:27.654Z,43.50
2023-04-10T14:54:54.769Z,42.03
2023-04-10T14:57:21.951Z,41.91
2023-04-10T14:59:49.058Z,41.38
2023-04-10T15:02:16.180Z,37.12
2023-04-10T15:04:43.399Z,36.90
2023-04-10T15:07:10.459Z,37.03
2023-04-10T15:09:37.803Z,37.08
2023-04-10T15:12:05.247Z,38.33
2023-04-10T15:14:32.511Z,41.25
2023-04-10T15:16:59.722Z,41.44
2023-04-10T15:19:27.330Z,41.95
2023-04-10T15:21:55.693Z,39.31
2023-04-10T15:24:25.182Z,37.64
2023-04-10T15:26:53.552Z,37.01
2023-04-10T15:29:23.539Z,37.81
2023-04-10T15:31:51.259Z,40.53
2023-04-10T15:34:19.061Z,39.77
2023-04-10T15:36:46.163Z,42.29
2023-04-10T15:39:13.482Z,39.66
2023-04-10T15:41:42.620Z,40.28
2023-04-10T15:44:09.925Z,37.59
2023-04-10T15:46:37.891Z,37.44
2023-04-10T15:49:05.356Z,37.80
2023-04-10T15:51:32.497Z,39.63
2023-04-10T15:54:04.799Z,39.06
2023-04-10T15:56:33.339Z,37.52
2023-04-10T15:59:00.495Z,37.32
2023-04-10T16:01:27.839Z,37.99
2023-04-10T16:03:55.314Z,38.21
2023-04-10T16:06:25.827Z,39.49
2023-04-10T16:08:53.218Z,40.81
2023-04-10T16:11:24.111Z,38.95
2023-04-10T16:13:51.195Z,39.35
2023-04-10T16:16:18.816Z,42.48
2023-04-10T16:18:46.478Z,38.91
2023-04-10T16:21:16.817Z,38.03
2023-04-10T16:23:44.110Z,37.65
2023-04-10T16:26:11.182Z,40.37
2023-04-10T16:28:40.704Z,40.31
2023-04-10T16:31:07.875Z,38.25
2023-04-10T16:33:34.972Z,37.04
2023-04-10T16:36:05.023Z,38.27
2023-04-10T16:38:34.475Z,36.31
2023-04-10T16:41:05.866Z,38.57
2023-04-10T16:43:32.978Z,36.58
2023-04-10T16:46:00.330Z,38.63
2023-04-10T16:48:27.751Z,37.26
2023-04-10T16:50:54.895Z,37.28
2023-04-10T16:53:22.344Z,38.50
2023-04-10T16:56:02.803Z,39.15
2023-04-10T16:58:31.473Z,37.65
2023-04-10T17:00:58.912Z,37.19
2023-04-10T17:03:26.701Z,37.68
2023-04-10T17:05:53.774Z,36.92
2023-04-10T17:08:20.833Z,40.75
2023-04-10T17:10:47.848Z,41.31
2023-04-10T17:13:20.391Z,41.96
2023-04-10T17:15:47.488Z,45.63
2023-04-10T17:18:15.163Z,47.07
2023-04-10T17:20:42.345Z,46.99
2023-04-10T17:23:09.403Z,49.73
2023-04-10T17:25:40.593Z,49.15
2023-04-10T17:28:08.373Z,49.08
2023-04-10T17:30:35.824Z,49.74
2023-04-10T17:33:02.971Z,50.05
2023-04-10T17:35:30.365Z,49.40
2023-04-10T17:37:57.435Z,49.68
2023-04-10T17:40:24.990Z,50.53
2023-04-10T17:42:52.122Z,50.08
2023-04-10T17:45:19.455Z,52.39
2023-04-10T17:47:46.548Z,52.82
2023-04-10T17:50:13.692Z,54.20
2023-04-10T17:52:40.918Z,54.47
2023-04-10T17:55:08.979Z,55.06
2023-04-10T17:57:36.003Z,56.31
2023-04-10T18:00:09.321Z,55.34
2023-04-10T18:02:36.524Z,54.79
2023-04-10T18:05:03.795Z,55.58
2023-04-10T18:07:30.833Z,54.27
2023-04-10T18:09:57.880Z,55.92
2023-04-10T18:12:24.942Z,56.36
2023-04-10T18:14:52.080Z,57.05
2023-04-10T18:17:19.182Z,56.95
2023-04-10T18:19:46.320Z,56.49
2023-04-10T18:22:13.343Z,55.40
2023-04-10T18:24:40.508Z,55.19
2023-04-10T18:27:07.585Z,54.57
2023-04-10T18:29:34.628Z,55.33
2023-04-10T18:32:01.749Z,54.91
2023-04-10T18:34:28.796Z,55.74
2023-04-10T18:36:56.610Z,56.04
2023-04-10T18:39:23.744Z,55.59
2023-04-10T18:41:50.785Z,54.19
2023-04-10T18:44:17.872Z,54.07
2023-04-10T18:46:48.615Z,54.84
2023-04-10T18:49:21.004Z,55.57
2023-04-10T18:51:48.050Z,55.65
2023-04-10T18:54:15.218Z,55.50
2023-04-10T18:56:42.288Z,56.13
2023-04-10T18:59:09.454Z,56.62
2023-04-10T19:01:36.841Z,56.41
2023-04-10T19:04:04.005Z,56.64
2023-04-10T19:06:32.696Z,57.43
2023-04-10T19:09:00.030Z,56.78
2023-04-10T19:11:27.214Z,55.59
2023-04-10T19:13:54.727Z,57.12
2023-04-10T19:16:22.391Z,56.51
2023-04-10T19:18:49.744Z,56.22
2023-04-10T19:21:16.898Z,57.24
2023-04-10T19:23:44.836Z,56.54
2023-04-10T19:26:11.929Z,55.90
2023-04-10T19:28:40.449Z,54.87
2023-04-10T19:31:08.439Z,53.83
2023-04-10T19:33:35.564Z,56.01
2023-04-10T19:36:02.680Z,55.66
2023-04-10T19:38:30.560Z,55.21
2023-04-10T19:40:57.702Z,55.17
2023-04-10T19:43:25.066Z,53.60
2023-04-10T19:45:53.286Z,55.02
2023-04-10T19:48:22.706Z,54.70
2023-04-10T19:50:49.762Z,53.82
2023-04-10T19:53:16.871Z,53.28
2023-04-10T19:55:44.841Z,53.67
2023-04-10T19:58:30.040Z,52.46
2023-04-10T20:01:06.329Z,53.68
2023-04-10T20:03:37.556Z,51.98
2023-04-10T20:06:07.569Z,53.14
2023-04-10T20:08:35.857Z,53.41
2023-04-10T20:11:06.307Z,53.79
2023-04-10T20:13:34.754Z,55.32
2023-04-10T20:16:05.140Z,54.39
2023-04-10T20:18:32.367Z,52.53
2023-04-10T20:20:59.538Z,51.83
2023-04-10T20:23:26.605Z,53.08
2023-04-10T20:25:53.669Z,53.67
2023-04-10T20:28:20.845Z,54.01
2023-04-10T20:30:47.901Z,51.81
2023-04-10T20:33:17.862Z,51.73
2023-04-10T20:35:45.698Z,52.99
2023-04-10T20:38:12.800Z,51.44
2023-04-10T20:40:42.764Z,53.73
2023-04-10T20:43:13.953Z,52.26
2023-04-10T20:45:41.430Z,51.86
2023-04-10T20:48:11.387Z,50.83
2023-04-10T20:50:45.781Z,53.71
2023-04-10T20:53:13.272Z,52.98
2023-04-10T20:55:40.977Z,50.91
2023-04-10T20:58:08.221Z,50.08
2023-04-10T21:00:35.670Z,50.58
2023-04-10T21:03:05.979Z,51.94
2023-04-10T21:05:33.099Z,51.18
2023-04-10T21:08:00.300Z,48.27
2023-04-10T21:10:27.358Z,48.16
2023-04-10T21:12:54.424Z,49.10
2023-04-10T21:15:22.378Z,46.95
2023-04-10T21:17:51.912Z,48.86
2023-04-10T21:20:19.041Z,47.49
2023-04-10T21:22:46.174Z,48.16
2023-04-10T21:25:13.327Z,48.02
2023-04-10T21:27:40.406Z,50.85
2023-04-10T21:30:08.751Z,50.25
2023-04-10T21:32:35.881Z,50.01
2023-04-10T21:35:03.059Z,49.33
2023-04-10T21:37:30.931Z,46.26
2023-04-10T21:39:58.068Z,47.00
2023-04-10T21:42:25.146Z,47.47
2023-04-10T21:44:54.126Z,46.55
2023-04-10T21:47:21.303Z,48.00
2023-04-10T21:49:48.557Z,47.68
2023-04-10T21:52:15.603Z,46.24
2023-04-10T21:54:42.683Z,47.11
2023-04-10T21:57:09.727Z,49.18
2023-04-10T21:59:37.263Z,46.14
2023-04-10T22:02:04.409Z,47.10
2023-04-10T22:04:33.102Z,47.79
2023-04-10T22:07:00.269Z,48.87
2023-04-10T22:09:27.315Z,47.85
2023-04-10T22:11:54.465Z,46.38
2023-04-10T22:14:21.619Z,47.20
2023-04-10T22:16:48.736Z,49.67
2023-04-10T22:19:15.919Z,48.17
2023-04-10T22:21:43.106Z,48.09
2023-04-10T22:24:11.099Z,47.51
2023-04-10T22:26:38.283Z,48.59
2023-04-10T22:29:05.577Z,48.05
2023-04-10T22:31:32.784Z,48.06
2023-04-10T22:33:59.870Z,48.34
2023-04-10T22:36:35.407Z,47.95
2023-04-10T22:39:03.519Z,49.34
2023-04-10T22:41:31.784Z,48.45
2023-04-10T22:43:58.971Z,49.60
2023-04-10T22:46:26.162Z,50.30
2023-04-10T22:48:55.013Z,49.66
2023-04-10T22:51:22.328Z,48.22
2023-04-10T22:53:49.370Z,47.70
2023-04-10T22:56:17.153Z,47.55
2023-04-10T22:58:44.202Z,46.44
2023-04-10T23:01:14.268Z,47.71
2023-04-10T23:03:41.574Z,47.87
2023-04-10T23:06:09.282Z,47.21
2023-04-10T23:08:36.872Z,47.19
2023-04-10T23:11:04.056Z,47.58
2023-04-10T23:13:31.158Z,48.96
2023-04-10T23:15:58.318Z,46.95
2023-04-10T23:18:25.553Z,47.36
2023-04-10T23:20:52.642Z,46.82
2023-04-10T23:23:20.008Z,47.63
2023-04-10T23:25:56.648Z,47.11
2023-04-10T23:28:23.736Z,49.11
2023-04-10T23:30:50.868Z,48.58
2023-04-10T23:33:18.389Z,46.97
2023-04-10T23:35:45.569Z,47.76
2023-04-10T23:38:12.657Z,50.50
2023-04-10T23:40:39.721Z,48.33
2023-04-10T23:43:06.829Z,46.71
2023-04-10T23:45:33.881Z,47.72
2023-04-10T23:48:00.959Z,47.01
2023-04-10T23:50:28.007Z,46.61
2023-04-10T23:52:55.289Z,47.68
2023-04-10T23:55:22.855Z,48.37
2023-04-10T23:57:49.944Z,46.07
